createdAt,value
2019-03-06T00:01:40.404Z,5.13
2019-03-06T00:04:09.949Z,3.97
2019-03-06T00:06:39.168Z,3.57
2019-03-06T00:09:08.943Z,4.10
2019-03-06T00:11:38.088Z,4.03
2019-03-06T00:14:07.326Z,4.03
2019-03-06T00:16:36.519Z,4.50
2019-03-06T00:19:05.759Z,4.60
2019-03-06T00:21:34.919Z,4.00
2019-03-06T00:24:04.251Z,4.43
2019-03-06T00:26:33.373Z,4.60
2019-03-06T00:29:02.662Z,4.53
2019-03-06T00:31:31.777Z,4.40
2019-03-06T00:34:12.105Z,4.50
2019-03-06T00:36:41.462Z,5.87
2019-03-06T00:39:11.489Z,5.30
2019-03-06T00:41:46.631Z,4.13
2019-03-06T00:44:15.661Z,5.20
2019-03-06T00:46:44.770Z,5.40
2019-03-06T00:49:13.965Z,4.80
2019-03-06T00:51:43.319Z,5.23
2019-03-06T00:54:12.539Z,4.73
2019-03-06T00:56:41.703Z,5.00
2019-03-06T00:59:11.109Z,4.90
2019-03-06T01:01:40.184Z,5.40
2019-03-06T01:04:09.251Z,5.03
2019-03-06T01:06:38.825Z,6.10
2019-03-06T01:09:08.892Z,5.90
2019-03-06T01:11:38.150Z,6.47
2019-03-06T01:14:07.276Z,4.60
2019-03-06T01:16:36.711Z,4.97
2019-03-06T01:19:06.135Z,5.60
2019-03-06T01:21:35.739Z,5.27
2019-03-06T01:24:05.083Z,5.50
2019-03-06T01:26:34.148Z,5.73
2019-03-06T01:29:03.416Z,4.90
2019-03-06T01:31:32.815Z,5.70
2019-03-06T01:34:18.796Z,4.80
2019-03-06T01:37:07.878Z,4.97
2019-03-06T01:39:52.543Z,5.10
2019-03-06T01:42:39.149Z,5.00
2019-03-06T01:45:10.471Z,5.60
2019-03-06T01:47:39.554Z,5.60
2019-03-06T01:50:12.299Z,5.93
2019-03-06T01:52:41.552Z,6.03
2019-03-06T01:55:12.714Z,5.97
2019-03-06T01:57:42.004Z,4.83
2019-03-06T02:00:21.456Z,5.93
2019-03-06T02:02:50.550Z,5.20
2019-03-06T02:05:19.668Z,5.00
2019-03-06T02:07:48.780Z,5.80
2019-03-06T02:10:20.293Z,5.23
2019-03-06T02:12:49.356Z,5.33
2019-03-06T02:15:19.199Z,5.07
2019-03-06T02:17:48.404Z,4.80
2019-03-06T02:20:18.217Z,4.43
2019-03-06T02:22:47.284Z,5.37
2019-03-06T02:25:16.393Z,5.50
2019-03-06T02:27:45.735Z,4.80
2019-03-06T02:30:18.130Z,4.50
2019-03-06T02:32:47.190Z,4.63
2019-03-06T02:35:16.253Z,5.10
2019-03-06T02:37:45.362Z,4.20
2019-03-06T02:40:14.766Z,4.50
2019-03-06T02:42:43.804Z,5.20
2019-03-06T02:45:14.289Z,4.53
2019-03-06T02:47:43.334Z,5.47
2019-03-06T02:50:14.516Z,6.80
2019-03-06T02:52:43.747Z,4.53
2019-03-06T02:55:12.955Z,4.93
2019-03-06T02:57:46.630Z,5.43
2019-03-06T03:00:49.872Z,4.47
2019-03-06T03:03:27.644Z,5.13
2019-03-06T03:06:01.240Z,4.07
2019-03-06T03:08:30.568Z,3.90
2019-03-06T03:10:59.657Z,4.77
2019-03-06T03:13:28.911Z,5.87
2019-03-06T03:15:58.191Z,5.43
2019-03-06T03:18:27.297Z,6.50
2019-03-06T03:20:56.714Z,6.20
2019-03-06T03:23:25.743Z,5.83
2019-03-06T03:25:54.998Z,5.77
2019-03-06T03:28:24.107Z,5.13
2019-03-06T03:30:53.583Z,5.40
2019-03-06T03:33:22.912Z,5.83
2019-03-06T03:35:52.150Z,4.50
2019-03-06T03:38:21.208Z,5.03
2019-03-06T03:40:52.148Z,5.77
2019-03-06T03:43:21.456Z,4.97
2019-03-06T03:45:50.574Z,4.50
2019-03-06T03:48:19.838Z,4.90
2019-03-06T03:50:49.394Z,5.60
2019-03-06T03:53:18.514Z,4.50
2019-03-06T03:55:47.555Z,5.10
2019-03-06T03:58:16.804Z,4.87
2019-03-06T04:00:45.966Z,4.90
2019-03-06T04:03:15.151Z,4.53
2019-03-06T04:05:44.436Z,4.77
2019-03-06T04:08:13.879Z,4.50
2019-03-06T04:10:42.905Z,4.77
2019-03-06T04:13:12.138Z,4.97
2019-03-06T04:15:41.338Z,4.73
2019-03-06T04:18:10.822Z,4.97
2019-03-06T04:20:39.902Z,4.70
2019-03-06T04:23:09.037Z,4.90
2019-03-06T04:25:38.168Z,5.27
2019-03-06T04:28:07.541Z,5.00
2019-03-06T04:30:36.577Z,4.50
2019-03-06T04:33:05.801Z,4.67
2019-03-06T04:35:35.033Z,5.30
2019-03-06T04:38:04.344Z,5.50
2019-03-06T04:40:33.627Z,4.37
2019-03-06T04:43:04.776Z,4.50
2019-03-06T04:45:33.890Z,4.30
2019-03-06T04:48:03.157Z,4.07
2019-03-06T04:50:32.309Z,3.70
2019-03-06T04:53:01.674Z,4.30
2019-03-06T04:55:30.902Z,4.00
2019-03-06T04:58:00.062Z,3.97
2019-03-06T05:00:29.284Z,5.30
2019-03-06T05:02:58.431Z,3.70
2019-03-06T05:05:27.779Z,3.70
2019-03-06T05:07:56.873Z,4.30
2019-03-06T05:10:26.050Z,3.30
2019-03-06T05:12:55.381Z,4.03
2019-03-06T05:15:24.483Z,4.40
2019-03-06T05:17:59.159Z,4.40
2019-03-06T05:20:28.223Z,3.97
2019-03-06T05:22:57.292Z,4.23
2019-03-06T05:25:26.646Z,4.13
2019-03-06T05:27:55.680Z,3.83
2019-03-06T05:30:26.817Z,4.30
2019-03-06T05:32:56.733Z,4.33
2019-03-06T05:35:32.859Z,4.50
2019-03-06T05:38:26.689Z,3.00
2019-03-06T05:40:56.067Z,4.00
2019-03-06T05:43:25.129Z,4.47
2019-03-06T05:45:54.339Z,3.80
2019-03-06T05:48:23.560Z,4.10
2019-03-06T05:50:52.622Z,3.57
2019-03-06T05:53:21.941Z,4.17
2019-03-06T05:55:51.198Z,2.80
2019-03-06T05:58:20.307Z,3.17
2019-03-06T06:00:49.540Z,3.20
2019-03-06T06:03:18.777Z,3.90
2019-03-06T06:05:48.063Z,3.00
2019-03-06T06:08:17.290Z,3.10
2019-03-06T06:10:46.475Z,3.70
2019-03-06T06:13:15.824Z,3.43
2019-03-06T06:15:44.900Z,3.80
2019-03-06T06:18:13.996Z,3.17
2019-03-06T06:20:43.436Z,3.53
2019-03-06T06:23:34.512Z,4.50
2019-03-06T06:26:03.635Z,3.20
2019-03-06T06:28:32.749Z,3.57
2019-03-06T06:31:01.789Z,3.00
2019-03-06T06:33:30.913Z,4.07
2019-03-06T06:36:00.188Z,3.40
2019-03-06T06:38:29.469Z,3.70
2019-03-06T06:40:58.523Z,3.20
2019-03-06T06:43:27.850Z,3.47
2019-03-06T06:45:57.016Z,4.00
2019-03-06T06:48:28.062Z,3.37
2019-03-06T06:51:44.589Z,3.37
2019-03-06T06:54:45.282Z,3.47
2019-03-06T06:57:23.410Z,2.87
2019-03-06T07:00:55.534Z,3.50
2019-03-06T07:04:27.208Z,3.13
2019-03-06T07:07:15.394Z,3.87
2019-03-06T07:10:15.752Z,3.23
2019-03-06T07:13:06.873Z,2.97
2019-03-06T07:16:07.166Z,3.03
2019-03-06T07:19:01.364Z,3.10
2019-03-06T07:21:55.837Z,3.53
2019-03-06T07:24:56.178Z,3.53
2019-03-06T07:27:46.254Z,3.57
2019-03-06T07:30:43.234Z,3.50
2019-03-06T07:33:30.122Z,3.10
2019-03-06T07:36:16.760Z,3.37
2019-03-06T07:38:45.869Z,2.27
2019-03-06T07:41:37.301Z,2.60
2019-03-06T07:44:30.183Z,2.30
2019-03-06T07:47:11.584Z,2.87
2019-03-06T07:50:04.783Z,2.70
2019-03-06T07:52:47.662Z,3.07
2019-03-06T07:55:32.681Z,2.50
2019-03-06T07:58:37.955Z,3.00
2019-03-06T08:01:16.667Z,2.40
2019-03-06T08:03:47.947Z,2.63
2019-03-06T08:06:17.028Z,2.33
2019-03-06T08:08:46.277Z,2.50
2019-03-06T08:11:43.418Z,2.53
2019-03-06T08:14:30.091Z,2.00
2019-03-06T08:17:18.259Z,2.10
2019-03-06T08:20:05.311Z,2.00
2019-03-06T08:22:59.548Z,2.30
2019-03-06T08:25:57.009Z,2.13
2019-03-06T08:28:26.292Z,1.97
2019-03-06T08:31:00.372Z,2.30
2019-03-06T08:33:29.600Z,2.97
2019-03-06T08:35:58.829Z,2.17
2019-03-06T08:38:28.321Z,2.20
2019-03-06T08:41:04.378Z,2.50
2019-03-06T08:43:28.480Z,1.67
2019-03-06T08:46:34.927Z,2.00
2019-03-06T08:49:24.567Z,1.73
2019-03-06T08:52:12.160Z,2.00
2019-03-06T08:54:50.426Z,1.57
2019-03-06T08:57:37.092Z,3.93
2019-03-06T09:00:40.671Z,4.70
2019-03-06T09:03:31.602Z,5.63
2019-03-06T09:06:22.402Z,6.43
2019-03-06T09:09:09.483Z,5.47
2019-03-06T09:12:03.880Z,5.90
2019-03-06T09:14:51.029Z,4.80
2019-03-06T09:17:38.362Z,4.13
2019-03-06T09:20:42.169Z,2.07
2019-03-06T09:23:35.928Z,1.43
2019-03-06T09:26:39.846Z,1.60
2019-03-06T09:29:19.147Z,1.60
2019-03-06T09:32:10.296Z,1.60
2019-03-06T09:34:47.609Z,1.40
2019-03-06T09:37:50.690Z,1.73
2019-03-06T09:40:39.099Z,1.50
2019-03-06T09:43:25.365Z,1.60
2019-03-06T09:46:04.727Z,1.30
2019-03-06T09:48:42.843Z,1.53
2019-03-06T09:51:30.872Z,1.50
2019-03-06T09:54:28.005Z,1.50
2019-03-06T09:57:12.514Z,1.60
2019-03-06T09:59:49.990Z,1.80
2019-03-06T10:02:56.568Z,1.50
2019-03-06T10:05:43.547Z,1.40
2019-03-06T10:08:23.937Z,1.47
2019-03-06T10:11:12.676Z,1.70
2019-03-06T10:13:56.863Z,1.90
2019-03-06T10:16:30.657Z,1.60
2019-03-06T10:19:20.899Z,2.03
2019-03-06T10:21:50.025Z,1.70
2019-03-06T10:24:19.202Z,1.50
2019-03-06T10:26:48.586Z,1.63
2019-03-06T10:29:17.692Z,1.57
2019-03-06T10:31:46.951Z,1.87
2019-03-06T10:34:16.293Z,1.47
2019-03-06T10:36:45.486Z,1.50
2019-03-06T10:39:17.467Z,1.70
2019-03-06T10:41:47.016Z,1.47
2019-03-06T10:44:16.330Z,1.40
2019-03-06T10:46:45.456Z,1.40
2019-03-06T10:49:14.541Z,1.43
2019-03-06T10:51:43.634Z,1.50
2019-03-06T10:54:12.936Z,1.50
2019-03-06T10:56:42.227Z,1.40
2019-03-06T10:59:11.314Z,1.37
2019-03-06T11:01:40.761Z,1.50
2019-03-06T11:04:22.873Z,1.80
2019-03-06T11:06:52.231Z,1.50
2019-03-06T11:09:22.259Z,1.50
2019-03-06T11:11:51.403Z,1.40
2019-03-06T11:14:20.456Z,1.50
2019-03-06T11:16:49.630Z,1.50
2019-03-06T11:19:20.887Z,1.60
2019-03-06T11:21:50.043Z,1.50
2019-03-06T11:24:19.214Z,1.60
2019-03-06T11:26:48.710Z,1.53
2019-03-06T11:29:19.353Z,1.40
2019-03-06T11:31:48.885Z,1.50
2019-03-06T11:34:18.247Z,1.83
2019-03-06T11:36:48.147Z,1.30
2019-03-06T11:39:17.467Z,1.60
2019-03-06T11:41:46.790Z,1.40
2019-03-06T11:44:15.900Z,1.67
2019-03-06T11:46:45.086Z,1.60
2019-03-06T11:49:14.279Z,1.50
2019-03-06T11:51:43.516Z,1.60
2019-03-06T11:54:12.924Z,1.93
2019-03-06T11:56:42.270Z,1.47
2019-03-06T11:59:11.380Z,1.63
2019-03-06T12:01:47.953Z,1.63
2019-03-06T12:04:12.693Z,1.80
2019-03-06T12:06:44.166Z,1.50
2019-03-06T12:09:34.053Z,1.50
2019-03-06T12:12:04.540Z,1.67
2019-03-06T12:14:33.692Z,1.73
2019-03-06T12:17:03.084Z,1.93
2019-03-06T12:19:32.279Z,1.30
2019-03-06T12:22:01.529Z,1.47
2019-03-06T12:24:30.629Z,1.20
2019-03-06T12:27:00.666Z,1.63
2019-03-06T12:29:30.035Z,1.30
2019-03-06T12:31:59.471Z,1.60
2019-03-06T12:34:28.716Z,1.20
2019-03-06T12:36:59.712Z,1.40
2019-03-06T12:39:29.086Z,1.80
2019-03-06T12:41:58.898Z,1.20
2019-03-06T12:44:28.263Z,1.40
2019-03-06T12:46:58.599Z,1.47
2019-03-06T12:49:29.198Z,1.07
2019-03-06T12:51:58.413Z,1.43
2019-03-06T12:54:27.485Z,1.37
2019-03-06T12:56:56.956Z,1.30
2019-03-06T12:59:26.192Z,1.27
2019-03-06T13:01:55.249Z,1.10
2019-03-06T13:04:24.543Z,1.40
2019-03-06T13:06:53.660Z,1.40
2019-03-06T13:09:22.729Z,1.40
2019-03-06T13:11:51.880Z,1.37
2019-03-06T13:14:21.371Z,1.60
2019-03-06T13:16:50.440Z,1.50
2019-03-06T13:19:19.616Z,1.87
2019-03-06T13:21:48.727Z,1.47
2019-03-06T13:24:17.911Z,1.47
2019-03-06T13:26:47.039Z,1.30
2019-03-06T13:29:16.430Z,1.60
2019-03-06T13:31:45.691Z,1.50
2019-03-06T13:34:32.411Z,2.10
2019-03-06T13:37:01.722Z,3.40
2019-03-06T13:39:30.815Z,3.70
2019-03-06T13:42:00.020Z,4.20
2019-03-06T13:44:29.227Z,3.10
2019-03-06T13:46:58.436Z,3.03
2019-03-06T13:49:27.715Z,6.73
2019-03-06T13:51:56.976Z,3.60
2019-03-06T13:54:26.458Z,2.73
2019-03-06T13:56:57.374Z,2.13
2019-03-06T13:59:26.451Z,5.90
2019-03-06T14:01:56.536Z,6.30
2019-03-06T14:04:26.111Z,4.20
2019-03-06T14:06:55.405Z,4.00
2019-03-06T14:09:25.041Z,2.20
2019-03-06T14:11:54.462Z,1.53
2019-03-06T14:14:24.326Z,1.90
2019-03-06T14:16:53.402Z,2.03
2019-03-06T14:19:22.786Z,2.00
2019-03-06T14:21:51.971Z,1.70
2019-03-06T14:24:21.830Z,1.70
2019-03-06T14:26:50.900Z,1.90
2019-03-06T14:29:20.415Z,1.50
2019-03-06T14:31:49.939Z,2.00
2019-03-06T14:34:19.055Z,1.70
2019-03-06T14:36:48.143Z,1.70
2019-03-06T14:39:26.082Z,1.40
2019-03-06T14:41:55.580Z,1.60
2019-03-06T14:44:25.349Z,1.57
2019-03-06T14:46:55.272Z,1.20
2019-03-06T14:49:24.575Z,1.23
2019-03-06T14:51:54.105Z,2.03
2019-03-06T14:54:23.221Z,1.20
2019-03-06T14:56:52.302Z,2.67
2019-03-06T14:59:21.407Z,1.70
2019-03-06T15:01:50.819Z,1.50
2019-03-06T15:04:19.962Z,1.10
2019-03-06T15:06:49.222Z,1.20
2019-03-06T15:09:22.805Z,1.80
2019-03-06T15:11:52.088Z,1.53
2019-03-06T15:14:22.242Z,1.70
2019-03-06T15:16:51.373Z,1.30
2019-03-06T15:19:21.037Z,1.93
2019-03-06T15:21:51.505Z,1.70
2019-03-06T15:24:20.806Z,1.73
2019-03-06T15:26:50.826Z,1.33
2019-03-06T15:29:20.861Z,1.10
2019-03-06T15:31:51.595Z,1.20
2019-03-06T15:34:20.822Z,2.23
2019-03-06T15:36:51.280Z,1.60
2019-03-06T15:39:43.552Z,2.17
2019-03-06T15:42:11.329Z,2.17
2019-03-06T15:44:41.505Z,2.10
2019-03-06T15:47:10.913Z,2.27
2019-03-06T15:49:40.251Z,2.20
2019-03-06T15:52:11.170Z,2.37
2019-03-06T15:54:40.496Z,2.13
2019-03-06T15:57:10.176Z,2.20
2019-03-06T15:59:43.403Z,2.40
2019-03-06T16:02:13.010Z,2.53
2019-03-06T16:04:42.577Z,2.13
2019-03-06T16:07:11.659Z,2.10
2019-03-06T16:09:41.007Z,1.93
2019-03-06T16:12:12.213Z,2.47
2019-03-06T16:14:41.115Z,2.00
2019-03-06T16:17:10.221Z,2.47
2019-03-06T16:19:39.529Z,2.13
2019-03-06T16:22:08.799Z,2.70
2019-03-06T16:24:40.741Z,2.87
2019-03-06T16:27:10.012Z,2.57
2019-03-06T16:29:39.824Z,2.93
2019-03-06T16:32:09.078Z,4.60
2019-03-06T16:34:38.350Z,3.83
2019-03-06T16:37:07.752Z,2.90
2019-03-06T16:39:37.467Z,3.37
2019-03-06T16:42:06.582Z,3.93
2019-03-06T16:44:35.880Z,4.70
2019-03-06T16:47:07.048Z,4.77
2019-03-06T16:49:35.918Z,4.83
2019-03-06T16:52:05.188Z,4.80
2019-03-06T16:54:34.473Z,5.50
2019-03-06T16:57:03.932Z,5.67
2019-03-06T16:59:33.152Z,5.90
2019-03-06T17:02:02.576Z,4.70
2019-03-06T17:04:32.372Z,5.10
2019-03-06T17:07:01.620Z,4.40
2019-03-06T17:09:30.739Z,4.37
2019-03-06T17:11:59.910Z,8.37
2019-03-06T17:14:29.581Z,8.07
2019-03-06T17:16:58.743Z,5.43
2019-03-06T17:19:27.799Z,4.90
2019-03-06T17:21:56.910Z,5.13
2019-03-06T17:24:26.086Z,3.60
2019-03-06T17:26:55.255Z,4.40
2019-03-06T17:29:25.392Z,3.27
2019-03-06T17:31:54.790Z,4.23
2019-03-06T17:34:24.116Z,4.37
2019-03-06T17:36:53.256Z,4.57
2019-03-06T17:39:22.368Z,4.10
2019-03-06T17:41:51.743Z,4.20
2019-03-06T17:44:22.712Z,4.50
2019-03-06T17:46:52.068Z,5.80
2019-03-06T17:49:21.523Z,5.53
2019-03-06T17:51:50.672Z,4.57
2019-03-06T17:54:19.933Z,4.83
2019-03-06T17:56:49.031Z,4.00
2019-03-06T17:59:18.311Z,1.90
2019-03-06T18:01:47.793Z,1.80
2019-03-06T18:04:20.445Z,2.50
2019-03-06T18:06:49.579Z,3.00
2019-03-06T18:09:19.036Z,2.43
2019-03-06T18:11:48.567Z,2.40
2019-03-06T18:14:19.417Z,3.90
2019-03-06T18:16:48.546Z,4.50
2019-03-06T18:19:17.658Z,4.87
2019-03-06T18:21:46.955Z,5.70
2019-03-06T18:24:16.162Z,5.57
2019-03-06T18:26:45.283Z,4.10
2019-03-06T18:29:14.689Z,5.07
2019-03-06T18:31:43.829Z,3.33
2019-03-06T18:34:13.297Z,3.60
2019-03-06T18:36:42.311Z,4.13
2019-03-06T18:39:18.249Z,4.63
2019-03-06T18:41:47.842Z,4.90
2019-03-06T18:44:17.015Z,4.90
2019-03-06T18:46:46.106Z,4.53
2019-03-06T18:49:15.359Z,2.90
2019-03-06T18:51:44.411Z,3.43
2019-03-06T18:54:13.934Z,3.13
2019-03-06T18:56:43.064Z,3.03
2019-03-06T18:59:12.241Z,2.90
2019-03-06T19:01:41.580Z,2.80
2019-03-06T19:04:10.876Z,3.30
2019-03-06T19:06:41.410Z,2.30
2019-03-06T19:09:11.007Z,2.70
2019-03-06T19:11:40.150Z,2.40
2019-03-06T19:14:09.518Z,2.60
2019-03-06T19:16:38.746Z,2.70
2019-03-06T19:19:07.818Z,2.47
2019-03-06T19:21:37.069Z,3.13
2019-03-06T19:24:06.478Z,2.67
2019-03-06T19:26:36.012Z,2.40
2019-03-06T19:29:05.586Z,3.13
2019-03-06T19:31:34.983Z,2.87
2019-03-06T19:34:04.149Z,3.00
2019-03-06T19:36:33.352Z,3.07
2019-03-06T19:39:02.859Z,2.50
2019-03-06T19:41:32.176Z,2.60
2019-03-06T19:44:01.246Z,2.97
2019-03-06T19:46:30.611Z,3.00
2019-03-06T19:49:02.418Z,2.43
2019-03-06T19:51:31.751Z,2.10
2019-03-06T19:54:00.937Z,2.00
2019-03-06T19:56:30.514Z,2.57
2019-03-06T19:58:59.698Z,2.70
2019-03-06T20:01:28.948Z,2.53
2019-03-06T20:03:58.173Z,2.83
2019-03-06T20:06:27.524Z,2.23
2019-03-06T20:08:57.096Z,2.93
2019-03-06T20:11:28.190Z,3.60
2019-03-06T20:13:57.767Z,3.00
2019-03-06T20:16:26.863Z,2.93
2019-03-06T20:18:56.007Z,3.23
2019-03-06T20:21:25.241Z,3.90
2019-03-06T20:23:54.485Z,2.90
2019-03-06T20:26:24.065Z,2.47
2019-03-06T20:28:53.211Z,3.57
2019-03-06T20:31:22.476Z,3.03
2019-03-06T20:33:51.787Z,3.37
2019-03-06T20:36:20.967Z,3.50
2019-03-06T20:38:50.741Z,3.90
2019-03-06T20:41:20.023Z,4.50
2019-03-06T20:43:49.249Z,3.93
2019-03-06T20:46:18.462Z,3.83
2019-03-06T20:48:47.623Z,3.10
2019-03-06T20:51:17.011Z,3.27
2019-03-06T20:53:46.110Z,2.70
2019-03-06T20:56:15.593Z,2.50
2019-03-06T20:58:44.884Z,2.77
2019-03-06T21:01:14.010Z,2.77
2019-03-06T21:03:43.310Z,2.50
2019-03-06T21:06:12.526Z,2.87
2019-03-06T21:08:41.744Z,2.97
2019-03-06T21:11:10.894Z,2.70
2019-03-06T21:13:40.310Z,2.13
2019-03-06T21:16:09.421Z,2.40
2019-03-06T21:18:39.179Z,2.37
2019-03-06T21:21:08.451Z,2.10
2019-03-06T21:23:37.796Z,1.97
2019-03-06T21:26:07.008Z,2.37
2019-03-06T21:28:36.218Z,2.70
2019-03-06T21:31:05.393Z,2.20
2019-03-06T21:33:35.067Z,2.10
2019-03-06T21:36:04.239Z,2.07
2019-03-06T21:38:33.426Z,2.10
2019-03-06T21:41:02.597Z,2.80
2019-03-06T21:43:31.720Z,3.13
2019-03-06T21:46:01.459Z,3.20
2019-03-06T21:48:30.775Z,2.70
2019-03-06T21:51:00.109Z,2.80
2019-03-06T21:53:30.030Z,2.97
2019-03-06T21:55:59.282Z,2.40
2019-03-06T21:58:29.639Z,2.53
2019-03-06T22:00:58.972Z,4.00
2019-03-06T22:03:28.248Z,3.17
2019-03-06T22:05:57.366Z,3.10
2019-03-06T22:08:26.639Z,2.50
2019-03-06T22:10:55.984Z,3.07
2019-03-06T22:13:25.145Z,3.90
2019-03-06T22:15:54.436Z,4.10
2019-03-06T22:18:23.928Z,4.53
2019-03-06T22:20:53.028Z,5.00
2019-03-06T22:23:22.202Z,4.27
2019-03-06T22:25:51.515Z,3.83
2019-03-06T22:28:20.731Z,3.60
2019-03-06T22:30:50.102Z,3.03
2019-03-06T22:33:19.479Z,2.57
2019-03-06T22:35:48.680Z,2.70
2019-03-06T22:38:17.815Z,2.73
2019-03-06T22:40:47.420Z,2.90
2019-03-06T22:43:16.757Z,2.47
2019-03-06T22:45:46.083Z,2.60
2019-03-06T22:48:17.394Z,2.70
2019-03-06T22:50:46.758Z,2.70
2019-03-06T22:53:15.857Z,2.83
2019-03-06T22:55:44.987Z,2.87
2019-03-06T22:58:14.929Z,3.40
2019-03-06T23:00:55.764Z,2.77
2019-03-06T23:03:26.551Z,2.60
2019-03-06T23:05:55.710Z,3.20
2019-03-06T23:08:25.034Z,3.13
2019-03-06T23:10:54.758Z,3.30
2019-03-06T23:13:24.385Z,3.83
2019-03-06T23:15:53.673Z,3.40
2019-03-06T23:18:23.005Z,3.50
2019-03-06T23:20:52.696Z,3.47
2019-03-06T23:23:22.624Z,3.23
2019-03-06T23:25:52.033Z,3.30
2019-03-06T23:28:21.803Z,3.03
2019-03-06T23:30:50.843Z,3.57
2019-03-06T23:33:19.941Z,4.43
2019-03-06T23:35:49.007Z,3.77
2019-03-06T23:38:18.061Z,3.80
2019-03-06T23:40:47.297Z,4.33
2019-03-06T23:43:16.572Z,4.00
2019-03-06T23:45:45.725Z,3.43
2019-03-06T23:48:15.013Z,3.20
2019-03-06T23:50:44.269Z,3.20
2019-03-06T23:53:14.528Z,3.70
2019-03-06T23:55:43.642Z,3.50
2019-03-06T23:58:12.842Z,2.60
